CEB463 RPLL-RPVI
Flight info
| Callsign | CEB463 |
|---|---|
| Flight time | 1h 0m |
| Altitude | 31000 |
| Route | VERDE2V VERDE W24 TAPER B472 LAMBO LAMBO2N |
| Aircraft | A21N/M-L/LB1 |
Departure
| Time | 2026-04-15 11:50 |
|---|---|
| Airport | Ninoy Aquino International Airport (RPLL) |
Arrival
| Time | 2026-04-15 12:51 |
|---|---|
| Airport | Iloilo International Airport (RPVI) |
| Time | Latitude | Longitude | Altitude | Speed | Heading |
|---|---|---|---|---|---|
| 2026-04-15 11:24 | 14.51664 | 121.01688 | 82 ft | 0 kts | 202° |
| 2026-04-15 11:33 | 14.51666 | 121.01688 | 81 ft | 2 kts | 203° |
| 2026-04-15 11:33 | 14.51680 | 121.01695 | 81 ft | 2 kts | 202° |
| 2026-04-15 11:33 | 14.51694 | 121.01701 | 81 ft | 2 kts | 202° |
| 2026-04-15 11:34 | 14.51708 | 121.01707 | 81 ft | 2 kts | 202° |
| 2026-04-15 11:34 | 14.51722 | 121.01712 | 81 ft | 2 kts | 202° |
| 2026-04-15 11:34 | 14.51731 | 121.01717 | 82 ft | 2 kts | 198° |
| 2026-04-15 11:34 | 14.51746 | 121.01717 | 82 ft | 2 kts | 166° |
| 2026-04-15 11:35 | 14.51760 | 121.01711 | 82 ft | 1 kts | 141° |
| 2026-04-15 11:35 | 14.51764 | 121.01706 | 82 ft | 1 kts | 131° |
| 2026-04-15 11:35 | 14.51766 | 121.01704 | 82 ft | 0 kts | 134° |
| 2026-04-15 11:40 | 14.51763 | 121.01708 | 82 ft | 1 kts | 135° |
| 2026-04-15 11:41 | 14.51755 | 121.01716 | 82 ft | 2 kts | 135° |
| 2026-04-15 11:41 | 14.51741 | 121.01730 | 82 ft | 3 kts | 135° |
| 2026-04-15 11:41 | 14.51722 | 121.01749 | 82 ft | 4 kts | 135° |
| 2026-04-15 11:41 | 14.51701 | 121.01769 | 82 ft | 4 kts | 141° |
| 2026-04-15 11:42 | 14.51668 | 121.01786 | 82 ft | 5 kts | 167° |
| 2026-04-15 11:42 | 14.51625 | 121.01777 | 82 ft | 6 kts | 214° |
| 2026-04-15 11:42 | 14.51588 | 121.01739 | 82 ft | 8 kts | 225° |
| 2026-04-15 11:42 | 14.51546 | 121.01695 | 82 ft | 9 kts | 225° |
| 2026-04-15 11:43 | 14.51498 | 121.01646 | 82 ft | 10 kts | 225° |
| 2026-04-15 11:43 | 14.51463 | 121.01586 | 82 ft | 10 kts | 285° |
| 2026-04-15 11:43 | 14.51515 | 121.01527 | 82 ft | 11 kts | 315° |
| 2026-04-15 11:43 | 14.51576 | 121.01466 | 82 ft | 12 kts | 315° |
| 2026-04-15 11:44 | 14.51640 | 121.01400 | 82 ft | 13 kts | 315° |
| 2026-04-15 11:44 | 14.51705 | 121.01333 | 82 ft | 13 kts | 315° |
| 2026-04-15 11:44 | 14.51771 | 121.01264 | 82 ft | 13 kts | 314° |
| 2026-04-15 11:44 | 14.51839 | 121.01194 | 82 ft | 13 kts | 315° |
| 2026-04-15 11:45 | 14.51910 | 121.01123 | 82 ft | 14 kts | 316° |
| 2026-04-15 11:45 | 14.51979 | 121.01050 | 82 ft | 14 kts | 313° |
| 2026-04-15 11:45 | 14.52049 | 121.00977 | 82 ft | 14 kts | 315° |
| 2026-04-15 11:45 | 14.52120 | 121.00904 | 82 ft | 14 kts | 315° |
| 2026-04-15 11:46 | 14.52191 | 121.00830 | 82 ft | 14 kts | 314° |
| 2026-04-15 11:46 | 14.52263 | 121.00755 | 82 ft | 14 kts | 315° |
| 2026-04-15 11:46 | 14.52336 | 121.00680 | 82 ft | 14 kts | 315° |
| 2026-04-15 11:46 | 14.52410 | 121.00605 | 82 ft | 14 kts | 315° |
| 2026-04-15 11:47 | 14.52483 | 121.00530 | 82 ft | 14 kts | 315° |
| 2026-04-15 11:47 | 14.52542 | 121.00455 | 82 ft | 11 kts | 285° |
| 2026-04-15 11:47 | 14.52543 | 121.00375 | 82 ft | 10 kts | 268° |
| 2026-04-15 11:47 | 14.52541 | 121.00332 | 82 ft | 3 kts | 267° |
| 2026-04-15 11:48 | 14.52539 | 121.00303 | 82 ft | 4 kts | 267° |
| 2026-04-15 11:48 | 14.52537 | 121.00267 | 82 ft | 5 kts | 262° |
| 2026-04-15 11:48 | 14.52512 | 121.00259 | 82 ft | 5 kts | 156° |
| 2026-04-15 11:48 | 14.52481 | 121.00285 | 82 ft | 6 kts | 136° |
| 2026-04-15 11:49 | 14.52449 | 121.00317 | 82 ft | 6 kts | 135° |
| 2026-04-15 11:49 | 14.52415 | 121.00352 | 82 ft | 7 kts | 135° |
| 2026-04-15 11:49 | 14.52377 | 121.00391 | 82 ft | 8 kts | 134° |
| 2026-04-15 11:49 | 14.52206 | 121.00567 | 82 ft | 73 kts | 135° |
| 2026-04-15 11:50 | 14.51653 | 121.01138 | 82 ft | 145 kts | 135° |
| 2026-04-15 11:50 | 14.50862 | 121.01944 | 477 ft | 164 kts | 134° |
| 2026-04-15 11:50 | 14.50061 | 121.02748 | 1210 ft | 162 kts | 134° |
| 2026-04-15 11:50 | 14.49272 | 121.03565 | 1922 ft | 164 kts | 133° |
| 2026-04-15 11:51 | 14.48482 | 121.04393 | 2521 ft | 163 kts | 133° |
| 2026-04-15 11:51 | 14.47664 | 121.05248 | 2787 ft | 175 kts | 133° |
| 2026-04-15 11:51 | 14.46764 | 121.06188 | 3056 ft | 189 kts | 133° |
| 2026-04-15 11:51 | 14.45811 | 121.07172 | 3307 ft | 202 kts | 135° |
| 2026-04-15 11:52 | 14.44652 | 121.08086 | 3564 ft | 216 kts | 146° |
| 2026-04-15 11:52 | 14.43269 | 121.08792 | 3814 ft | 230 kts | 157° |
| 2026-04-15 11:52 | 14.41633 | 121.09247 | 3958 ft | 254 kts | 171° |
| 2026-04-15 11:52 | 14.39800 | 121.09322 | 4265 ft | 272 kts | 184° |
| 2026-04-15 11:53 | 14.37910 | 121.08936 | 4760 ft | 283 kts | 198° |
| 2026-04-15 11:53 | 14.36079 | 121.08121 | 5480 ft | 286 kts | 205° |
| 2026-04-15 11:53 | 14.34240 | 121.07344 | 6113 ft | 288 kts | 195° |
| 2026-04-15 11:53 | 14.32268 | 121.06956 | 6719 ft | 289 kts | 184° |
| 2026-04-15 11:54 | 14.30270 | 121.06802 | 7358 ft | 292 kts | 181° |
| 2026-04-15 11:54 | 14.28219 | 121.06698 | 7981 ft | 295 kts | 181° |
| 2026-04-15 11:54 | 14.26154 | 121.06605 | 8570 ft | 299 kts | 180° |
| 2026-04-15 11:54 | 14.24073 | 121.06514 | 9155 ft | 302 kts | 181° |
| 2026-04-15 11:55 | 14.21948 | 121.06420 | 9706 ft | 304 kts | 181° |
| 2026-04-15 11:55 | 14.19833 | 121.06325 | 10246 ft | 307 kts | 181° |
| 2026-04-15 11:55 | 14.17652 | 121.06227 | 10567 ft | 318 kts | 181° |
| 2026-04-15 11:55 | 14.15387 | 121.06126 | 10807 ft | 332 kts | 181° |
| 2026-04-15 11:56 | 14.13044 | 121.06019 | 11047 ft | 344 kts | 181° |
| 2026-04-15 11:56 | 14.10616 | 121.05909 | 11456 ft | 350 kts | 181° |
| 2026-04-15 11:56 | 14.08152 | 121.05796 | 11981 ft | 352 kts | 181° |
| 2026-04-15 11:56 | 14.05703 | 121.05683 | 12480 ft | 354 kts | 181° |
| 2026-04-15 11:57 | 14.03232 | 121.05570 | 12935 ft | 357 kts | 181° |
| 2026-04-15 11:57 | 13.98212 | 121.05339 | 13821 ft | 363 kts | 181° |
| 2026-04-15 11:57 | 13.95672 | 121.05223 | 14265 ft | 365 kts | 181° |
| 2026-04-15 11:58 | 13.93094 | 121.05106 | 14719 ft | 367 kts | 181° |
| 2026-04-15 11:58 | 13.90557 | 121.04990 | 15157 ft | 369 kts | 181° |
| 2026-04-15 11:58 | 13.87966 | 121.04873 | 15583 ft | 371 kts | 181° |
| 2026-04-15 11:58 | 13.85366 | 121.04755 | 16001 ft | 373 kts | 181° |
| 2026-04-15 11:59 | 13.82757 | 121.04638 | 16413 ft | 375 kts | 181° |
| 2026-04-15 11:59 | 13.80138 | 121.04520 | 16805 ft | 377 kts | 181° |
| 2026-04-15 11:59 | 13.77530 | 121.04402 | 17188 ft | 378 kts | 181° |
| 2026-04-15 11:59 | 13.74871 | 121.04282 | 17592 ft | 379 kts | 181° |
| 2026-04-15 12:00 | 13.72252 | 121.04164 | 18081 ft | 377 kts | 181° |
| 2026-04-15 12:00 | 13.69631 | 121.04046 | 18608 ft | 374 kts | 181° |
| 2026-04-15 12:00 | 13.67011 | 121.03928 | 18860 ft | 380 kts | 181° |
| 2026-04-15 12:00 | 13.64307 | 121.03807 | 19057 ft | 387 kts | 181° |
| 2026-04-15 12:01 | 13.61595 | 121.03685 | 19369 ft | 390 kts | 181° |
| 2026-04-15 12:01 | 13.58881 | 121.03561 | 19696 ft | 392 kts | 181° |
| 2026-04-15 12:01 | 13.56131 | 121.03437 | 20041 ft | 394 kts | 181° |
| 2026-04-15 12:01 | 13.53391 | 121.03331 | 20364 ft | 395 kts | 178° |
| 2026-04-15 12:02 | 13.50688 | 121.03685 | 20662 ft | 394 kts | 163° |
| 2026-04-15 12:02 | 13.48134 | 121.04728 | 21004 ft | 392 kts | 149° |
| 2026-04-15 12:02 | 13.45849 | 121.06242 | 21347 ft | 391 kts | 144° |
| 2026-04-15 12:02 | 13.43626 | 121.07836 | 21655 ft | 393 kts | 143° |
| 2026-04-15 12:03 | 13.41359 | 121.09466 | 21965 ft | 395 kts | 143° |
| 2026-04-15 12:03 | 13.39107 | 121.11069 | 22273 ft | 397 kts | 144° |
| 2026-04-15 12:03 | 13.36809 | 121.12691 | 22576 ft | 398 kts | 144° |
| 2026-04-15 12:03 | 13.34526 | 121.14294 | 22865 ft | 400 kts | 144° |
| 2026-04-15 12:04 | 13.32206 | 121.15918 | 23147 ft | 402 kts | 144° |
| 2026-04-15 12:04 | 13.29882 | 121.17545 | 23427 ft | 404 kts | 144° |
| 2026-04-15 12:04 | 13.27570 | 121.19164 | 23697 ft | 406 kts | 144° |
| 2026-04-15 12:04 | 13.25240 | 121.20796 | 23970 ft | 408 kts | 144° |
| 2026-04-15 12:05 | 13.22887 | 121.22446 | 24239 ft | 410 kts | 144° |
| 2026-04-15 12:05 | 13.20514 | 121.24109 | 24503 ft | 411 kts | 144° |
| 2026-04-15 12:05 | 13.18152 | 121.25764 | 24764 ft | 413 kts | 144° |
| 2026-04-15 12:05 | 13.15757 | 121.27441 | 25021 ft | 415 kts | 144° |
| 2026-04-15 12:06 | 13.13384 | 121.29105 | 25267 ft | 417 kts | 144° |
| 2026-04-15 12:06 | 13.10992 | 121.30780 | 25513 ft | 418 kts | 144° |
| 2026-04-15 12:06 | 13.08577 | 121.32470 | 25762 ft | 420 kts | 144° |
| 2026-04-15 12:06 | 13.06157 | 121.34165 | 26006 ft | 421 kts | 144° |
| 2026-04-15 12:07 | 13.03722 | 121.35870 | 26232 ft | 423 kts | 145° |
| 2026-04-15 12:07 | 13.01273 | 121.37583 | 26453 ft | 425 kts | 145° |
| 2026-04-15 12:07 | 12.98825 | 121.39296 | 26681 ft | 426 kts | 145° |
| 2026-04-15 12:07 | 12.96379 | 121.41007 | 26898 ft | 428 kts | 145° |
| 2026-04-15 12:08 | 12.93914 | 121.42731 | 27110 ft | 429 kts | 145° |
| 2026-04-15 12:08 | 12.91446 | 121.44457 | 27328 ft | 430 kts | 145° |
| 2026-04-15 12:08 | 12.88951 | 121.46202 | 27550 ft | 431 kts | 145° |
| 2026-04-15 12:08 | 12.86479 | 121.47929 | 27764 ft | 433 kts | 145° |
| 2026-04-15 12:09 | 12.83977 | 121.49676 | 27968 ft | 434 kts | 145° |
| 2026-04-15 12:09 | 12.81480 | 121.51421 | 28152 ft | 436 kts | 145° |
| 2026-04-15 12:09 | 12.78954 | 121.53185 | 28335 ft | 438 kts | 145° |
| 2026-04-15 12:09 | 12.76442 | 121.54938 | 28527 ft | 439 kts | 145° |
| 2026-04-15 12:10 | 12.73908 | 121.56707 | 28726 ft | 440 kts | 145° |
| 2026-04-15 12:10 | 12.71380 | 121.58471 | 28881 ft | 442 kts | 145° |
| 2026-04-15 12:10 | 12.68821 | 121.60257 | 28890 ft | 442 kts | 145° |
| 2026-04-15 12:11 | 12.63750 | 121.63796 | 28894 ft | 442 kts | 145° |
| 2026-04-15 12:11 | 12.58659 | 121.67348 | 28888 ft | 442 kts | 146° |
| 2026-04-15 12:12 | 12.53579 | 121.70888 | 28885 ft | 442 kts | 146° |
| 2026-04-15 12:12 | 12.48506 | 121.74424 | 28886 ft | 441 kts | 146° |
| 2026-04-15 12:13 | 12.43417 | 121.77970 | 28885 ft | 441 kts | 146° |
| 2026-04-15 12:13 | 12.38303 | 121.81406 | 28879 ft | 441 kts | 149° |
| 2026-04-15 12:14 | 12.32867 | 121.84328 | 28883 ft | 442 kts | 155° |
| 2026-04-15 12:14 | 12.27186 | 121.86833 | 28885 ft | 441 kts | 157° |
| 2026-04-15 12:15 | 12.21536 | 121.89292 | 28881 ft | 441 kts | 157° |
| 2026-04-15 12:15 | 12.15852 | 121.91769 | 28883 ft | 440 kts | 157° |
| 2026-04-15 12:16 | 12.10184 | 121.94240 | 28879 ft | 440 kts | 157° |
| 2026-04-15 12:16 | 12.04534 | 121.96700 | 28878 ft | 440 kts | 156° |
| 2026-04-15 12:17 | 11.98906 | 121.99153 | 28813 ft | 438 kts | 156° |
| 2026-04-15 12:17 | 11.96114 | 122.00370 | 28232 ft | 440 kts | 156° |
| 2026-04-15 12:17 | 11.93298 | 122.01595 | 27378 ft | 446 kts | 156° |
| 2026-04-15 12:17 | 11.90413 | 122.02848 | 26673 ft | 447 kts | 156° |
| 2026-04-15 12:18 | 11.87580 | 122.04079 | 26042 ft | 442 kts | 156° |
| 2026-04-15 12:18 | 11.84744 | 122.05313 | 25328 ft | 438 kts | 156° |
| 2026-04-15 12:18 | 11.81967 | 122.06522 | 24679 ft | 432 kts | 155° |
| 2026-04-15 12:18 | 11.79226 | 122.07713 | 24140 ft | 424 kts | 155° |
| 2026-04-15 12:19 | 11.76547 | 122.08878 | 23645 ft | 416 kts | 155° |
| 2026-04-15 12:19 | 11.73926 | 122.10017 | 23172 ft | 408 kts | 154° |
| 2026-04-15 12:19 | 11.71320 | 122.11152 | 22703 ft | 401 kts | 154° |
| 2026-04-15 12:19 | 11.68786 | 122.12254 | 22243 ft | 394 kts | 154° |
| 2026-04-15 12:20 | 11.66264 | 122.13352 | 21792 ft | 389 kts | 154° |
| 2026-04-15 12:20 | 11.63786 | 122.14432 | 21350 ft | 385 kts | 154° |
| 2026-04-15 12:20 | 11.61350 | 122.15492 | 20917 ft | 383 kts | 154° |
| 2026-04-15 12:20 | 11.58871 | 122.16571 | 20485 ft | 385 kts | 154° |
| 2026-04-15 12:21 | 11.56421 | 122.17637 | 20068 ft | 388 kts | 154° |
| 2026-04-15 12:21 | 11.53920 | 122.18724 | 19642 ft | 386 kts | 154° |
| 2026-04-15 12:21 | 11.51452 | 122.19795 | 19220 ft | 383 kts | 154° |
| 2026-04-15 12:21 | 11.49002 | 122.20858 | 18800 ft | 381 kts | 154° |
| 2026-04-15 12:22 | 11.46567 | 122.21915 | 18376 ft | 378 kts | 154° |
| 2026-04-15 12:22 | 11.44155 | 122.22961 | 17955 ft | 377 kts | 154° |
| 2026-04-15 12:22 | 11.41754 | 122.24003 | 17536 ft | 375 kts | 154° |
| 2026-04-15 12:22 | 11.39351 | 122.25047 | 17110 ft | 373 kts | 154° |
| 2026-04-15 12:23 | 11.36980 | 122.26076 | 16688 ft | 371 kts | 154° |
| 2026-04-15 12:23 | 11.34595 | 122.27112 | 16259 ft | 368 kts | 154° |
| 2026-04-15 12:23 | 11.32244 | 122.28132 | 15837 ft | 366 kts | 155° |
| 2026-04-15 12:23 | 11.29901 | 122.29149 | 15412 ft | 364 kts | 155° |
| 2026-04-15 12:24 | 11.27576 | 122.30156 | 14987 ft | 362 kts | 155° |
| 2026-04-15 12:24 | 11.25284 | 122.31151 | 14567 ft | 360 kts | 155° |
| 2026-04-15 12:24 | 11.22966 | 122.32156 | 14141 ft | 358 kts | 155° |
| 2026-04-15 12:24 | 11.20662 | 122.33153 | 13715 ft | 355 kts | 155° |
| 2026-04-15 12:25 | 11.18409 | 122.34128 | 13287 ft | 347 kts | 155° |
| 2026-04-15 12:25 | 11.16179 | 122.34972 | 12864 ft | 339 kts | 161° |
| 2026-04-15 12:25 | 11.13900 | 122.35561 | 12441 ft | 331 kts | 166° |
| 2026-04-15 12:25 | 11.11661 | 122.36021 | 12028 ft | 329 kts | 167° |
| 2026-04-15 12:26 | 11.09409 | 122.36467 | 11604 ft | 327 kts | 167° |
| 2026-04-15 12:26 | 11.07184 | 122.36909 | 11178 ft | 323 kts | 167° |
| 2026-04-15 12:26 | 11.04975 | 122.37349 | 10753 ft | 318 kts | 167° |
| 2026-04-15 12:26 | 11.02839 | 122.37779 | 10339 ft | 314 kts | 167° |
| 2026-04-15 12:27 | 11.00702 | 122.38207 | 9915 ft | 310 kts | 167° |
| 2026-04-15 12:27 | 10.98574 | 122.38635 | 9483 ft | 307 kts | 167° |
| 2026-04-15 12:27 | 10.96493 | 122.39053 | 9232 ft | 297 kts | 167° |
| 2026-04-15 12:27 | 10.94457 | 122.39407 | 9095 ft | 297 kts | 174° |
| 2026-04-15 12:28 | 10.92395 | 122.39318 | 8931 ft | 299 kts | 188° |
| 2026-04-15 12:28 | 10.90565 | 122.38886 | 8775 ft | 299 kts | 193° |
| 2026-04-15 12:28 | 10.89129 | 122.38491 | 8629 ft | 297 kts | 194° |
| 2026-04-15 12:28 | 10.87135 | 122.37928 | 8346 ft | 296 kts | 194° |
| 2026-04-15 12:29 | 10.85162 | 122.37375 | 8024 ft | 295 kts | 194° |
| 2026-04-15 12:29 | 10.83180 | 122.36826 | 7685 ft | 293 kts | 194° |
| 2026-04-15 12:29 | 10.81205 | 122.36285 | 7336 ft | 291 kts | 193° |
| 2026-04-15 12:29 | 10.79250 | 122.35754 | 6987 ft | 290 kts | 193° |
| 2026-04-15 12:30 | 10.77299 | 122.35225 | 6634 ft | 288 kts | 193° |
| 2026-04-15 12:30 | 10.75360 | 122.34700 | 6285 ft | 287 kts | 193° |
| 2026-04-15 12:30 | 10.73421 | 122.34175 | 5939 ft | 285 kts | 193° |
| 2026-04-15 12:30 | 10.71517 | 122.33660 | 5604 ft | 284 kts | 193° |
| 2026-04-15 12:31 | 10.69599 | 122.33140 | 5328 ft | 279 kts | 193° |
| 2026-04-15 12:31 | 10.67726 | 122.32834 | 5187 ft | 264 kts | 171° |
| 2026-04-15 12:31 | 10.66112 | 122.33471 | 5029 ft | 245 kts | 135° |
| 2026-04-15 12:31 | 10.65180 | 122.34869 | 4718 ft | 235 kts | 106° |
| 2026-04-15 12:32 | 10.64709 | 122.36427 | 4441 ft | 232 kts | 104° |
| 2026-04-15 12:32 | 10.64222 | 122.37978 | 4147 ft | 230 kts | 105° |
| 2026-04-15 12:32 | 10.63742 | 122.39517 | 3837 ft | 225 kts | 96° |
| 2026-04-15 12:32 | 10.63907 | 122.41044 | 3493 ft | 216 kts | 63° |
| 2026-04-15 12:33 | 10.64862 | 122.42214 | 3330 ft | 215 kts | 38° |
| 2026-04-15 12:33 | 10.66119 | 122.42962 | 3286 ft | 202 kts | 27° |
| 2026-04-15 12:33 | 10.67395 | 122.43479 | 3095 ft | 189 kts | 22° |
| 2026-04-15 12:33 | 10.68582 | 122.43903 | 2931 ft | 174 kts | 22° |
| 2026-04-15 12:34 | 10.69703 | 122.44302 | 2723 ft | 165 kts | 22° |
| 2026-04-15 12:34 | 10.70752 | 122.44685 | 2511 ft | 156 kts | 23° |
| 2026-04-15 12:34 | 10.71777 | 122.45066 | 2315 ft | 155 kts | 23° |
| 2026-04-15 12:34 | 10.72783 | 122.45441 | 2086 ft | 152 kts | 23° |
| 2026-04-15 12:35 | 10.73773 | 122.45809 | 1890 ft | 151 kts | 24° |
| 2026-04-15 12:35 | 10.74761 | 122.46177 | 1685 ft | 151 kts | 24° |
| 2026-04-15 12:35 | 10.75759 | 122.46549 | 1481 ft | 150 kts | 23° |
| 2026-04-15 12:35 | 10.76739 | 122.46910 | 1288 ft | 149 kts | 24° |
| 2026-04-15 12:36 | 10.77718 | 122.47272 | 1091 ft | 149 kts | 22° |
| 2026-04-15 12:36 | 10.78695 | 122.47636 | 893 ft | 149 kts | 22° |
| 2026-04-15 12:36 | 10.79671 | 122.47997 | 698 ft | 148 kts | 23° |
| 2026-04-15 12:36 | 10.80643 | 122.48358 | 489 ft | 148 kts | 22° |
| 2026-04-15 12:37 | 10.81614 | 122.48708 | 319 ft | 145 kts | 23° |
| 2026-04-15 12:37 | 10.82552 | 122.49057 | 183 ft | 139 kts | 22° |
| 2026-04-15 12:37 | 10.83421 | 122.49369 | 392 ft | 134 kts | 22° |
| 2026-04-15 12:37 | 10.84400 | 122.49740 | 533 ft | 162 kts | 25° |
| 2026-04-15 12:38 | 10.85500 | 122.50183 | 1008 ft | 174 kts | 22° |
| 2026-04-15 12:38 | 10.86688 | 122.50575 | 1496 ft | 188 kts | 20° |
| 2026-04-15 12:38 | 10.87967 | 122.50988 | 1892 ft | 198 kts | 21° |
| 2026-04-15 12:38 | 10.89312 | 122.51501 | 2134 ft | 210 kts | 23° |
| 2026-04-15 12:39 | 10.90720 | 122.52052 | 2296 ft | 229 kts | 23° |
| 2026-04-15 12:39 | 10.92254 | 122.52676 | 2443 ft | 234 kts | 30° |
| 2026-04-15 12:39 | 10.93429 | 122.53755 | 2457 ft | 231 kts | 58° |
| 2026-04-15 12:39 | 10.93975 | 122.55291 | 2462 ft | 231 kts | 83° |
| 2026-04-15 12:40 | 10.93793 | 122.56911 | 2465 ft | 233 kts | 108° |
| 2026-04-15 12:40 | 10.92925 | 122.58296 | 2465 ft | 239 kts | 133° |
| 2026-04-15 12:40 | 10.91468 | 122.59177 | 2464 ft | 246 kts | 161° |
| 2026-04-15 12:40 | 10.89743 | 122.59266 | 2463 ft | 252 kts | 189° |
| 2026-04-15 12:41 | 10.88014 | 122.58733 | 2480 ft | 270 kts | 196° |
| 2026-04-15 12:41 | 10.86173 | 122.58108 | 2477 ft | 287 kts | 196° |
| 2026-04-15 12:41 | 10.84175 | 122.57432 | 2474 ft | 305 kts | 196° |
| 2026-04-15 12:41 | 10.82126 | 122.56746 | 2468 ft | 306 kts | 196° |
| 2026-04-15 12:42 | 10.80118 | 122.56078 | 2463 ft | 306 kts | 196° |
| 2026-04-15 12:42 | 10.78082 | 122.55403 | 2460 ft | 307 kts | 196° |
| 2026-04-15 12:42 | 10.76025 | 122.54723 | 2461 ft | 307 kts | 196° |
| 2026-04-15 12:42 | 10.73998 | 122.54055 | 2462 ft | 307 kts | 196° |
| 2026-04-15 12:43 | 10.71947 | 122.53382 | 2464 ft | 307 kts | 196° |
| 2026-04-15 12:43 | 10.69894 | 122.52707 | 2464 ft | 307 kts | 196° |
| 2026-04-15 12:43 | 10.67875 | 122.52042 | 2460 ft | 299 kts | 196° |
| 2026-04-15 12:43 | 10.65948 | 122.51406 | 2453 ft | 282 kts | 196° |
| 2026-04-15 12:44 | 10.64121 | 122.50803 | 2447 ft | 266 kts | 195° |
| 2026-04-15 12:44 | 10.62421 | 122.50243 | 2447 ft | 252 kts | 195° |
| 2026-04-15 12:44 | 10.60825 | 122.49503 | 2434 ft | 255 kts | 219° |
| 2026-04-15 12:44 | 10.59877 | 122.48032 | 2426 ft | 243 kts | 259° |
| 2026-04-15 12:45 | 10.59983 | 122.46394 | 2455 ft | 235 kts | 293° |
| 2026-04-15 12:45 | 10.60797 | 122.44960 | 2480 ft | 231 kts | 308° |
| 2026-04-15 12:45 | 10.61741 | 122.43629 | 2473 ft | 231 kts | 311° |
| 2026-04-15 12:45 | 10.62927 | 122.42667 | 2523 ft | 208 kts | 341° |
| 2026-04-15 12:46 | 10.64280 | 122.42497 | 2488 ft | 183 kts | 8° |
| 2026-04-15 12:46 | 10.65470 | 122.42750 | 2465 ft | 173 kts | 19° |
| 2026-04-15 12:46 | 10.66649 | 122.43155 | 2483 ft | 180 kts | 22° |
| 2026-04-15 12:46 | 10.67835 | 122.43600 | 2472 ft | 175 kts | 23° |
| 2026-04-15 12:47 | 10.68910 | 122.44005 | 2446 ft | 156 kts | 23° |
| 2026-04-15 12:47 | 10.69928 | 122.44387 | 2471 ft | 153 kts | 23° |
| 2026-04-15 12:47 | 10.70941 | 122.44765 | 2453 ft | 152 kts | 23° |
| 2026-04-15 12:47 | 10.71933 | 122.45132 | 2280 ft | 152 kts | 24° |
| 2026-04-15 12:48 | 10.72929 | 122.45502 | 2069 ft | 151 kts | 23° |
| 2026-04-15 12:48 | 10.73926 | 122.45871 | 1864 ft | 150 kts | 23° |
| 2026-04-15 12:48 | 10.74906 | 122.46233 | 1666 ft | 150 kts | 23° |
| 2026-04-15 12:48 | 10.75888 | 122.46596 | 1464 ft | 149 kts | 23° |
| 2026-04-15 12:49 | 10.76866 | 122.46958 | 1269 ft | 149 kts | 23° |
| 2026-04-15 12:49 | 10.77846 | 122.47321 | 1068 ft | 148 kts | 22° |
| 2026-04-15 12:49 | 10.78815 | 122.47681 | 869 ft | 148 kts | 23° |
| 2026-04-15 12:49 | 10.79792 | 122.48044 | 665 ft | 148 kts | 23° |
| 2026-04-15 12:50 | 10.80752 | 122.48403 | 485 ft | 147 kts | 22° |
| 2026-04-15 12:50 | 10.81722 | 122.48751 | 299 ft | 144 kts | 23° |
| 2026-04-15 12:50 | 10.82656 | 122.49096 | 179 ft | 136 kts | 23° |
| 2026-04-15 12:50 | 10.83436 | 122.49387 | 176 ft | 94 kts | 19° |
| 2026-04-15 12:51 | 10.83891 | 122.49555 | 175 ft | 44 kts | 20° |
| 2026-04-15 12:51 | 10.84134 | 122.49645 | 175 ft | 33 kts | 20° |
| 2026-04-15 12:51 | 10.84256 | 122.49690 | 175 ft | 5 kts | 22° |
| 2026-04-15 12:51 | 10.84281 | 122.49711 | 175 ft | 5 kts | 51° |
| 2026-04-15 12:52 | 10.84305 | 122.49738 | 175 ft | 5 kts | 29° |
| 2026-04-15 12:52 | 10.84325 | 122.49728 | 175 ft | 3 kts | 247° |
| 2026-04-15 12:52 | 10.84295 | 122.49706 | 175 ft | 6 kts | 203° |
| 2026-04-15 12:52 | 10.84253 | 122.49689 | 175 ft | 6 kts | 200° |
| 2026-04-15 12:53 | 10.84204 | 122.49670 | 175 ft | 8 kts | 200° |
| 2026-04-15 12:53 | 10.84142 | 122.49648 | 175 ft | 10 kts | 200° |
| 2026-04-15 12:53 | 10.84064 | 122.49619 | 175 ft | 12 kts | 200° |
| 2026-04-15 12:53 | 10.83972 | 122.49585 | 175 ft | 15 kts | 200° |
| 2026-04-15 12:54 | 10.83862 | 122.49545 | 175 ft | 17 kts | 200° |
| 2026-04-15 12:54 | 10.83739 | 122.49498 | 175 ft | 20 kts | 200° |
| 2026-04-15 12:54 | 10.83631 | 122.49458 | 175 ft | 6 kts | 200° |
| 2026-04-15 12:54 | 10.83586 | 122.49454 | 175 ft | 6 kts | 161° |
| 2026-04-15 12:55 | 10.83555 | 122.49491 | 175 ft | 7 kts | 111° |
| 2026-04-15 12:55 | 10.83535 | 122.49543 | 175 ft | 8 kts | 111° |
| 2026-04-15 12:55 | 10.83513 | 122.49600 | 175 ft | 8 kts | 109° |
| 2026-04-15 12:55 | 10.83489 | 122.49659 | 175 ft | 8 kts | 126° |
| 2026-04-15 12:56 | 10.83452 | 122.49679 | 175 ft | 6 kts | 182° |
| 2026-04-15 12:56 | 10.83406 | 122.49666 | 175 ft | 7 kts | 199° |
| 2026-04-15 12:56 | 10.83356 | 122.49648 | 175 ft | 8 kts | 199° |
| 2026-04-15 12:56 | 10.83301 | 122.49628 | 175 ft | 8 kts | 199° |